Pattaya, Thailand
Current Conditions -  °F | °C
As of 10:00 PM on Tuesday 21 Oct 2014 (Local Time) from VTBU Reporting Station
Thunderstorm Thunderstorm  
Wind Chill: 82°   Ceiling: 30000
Heat Index: 89°   Visibility: 5mi
Dew Point: 75°   Wind: 3mph
Humidity: 79%   Direction: 60°ENE
Pressure: 29.91"   Gusts: NA
Location:  12.92°N, 100.9°E
Report Text: VTBU 211500Z 06003KT 8000 VCTS FEW020CB BKN300 28/24 Q1013 A2993 TS ESE LTG
Loading
Personal Weather Stations






























Interactive Weather Map
Tropical Storm Tracking
New forecast layout! Learn more

10-Day Weather Forecast

Advertisements
Track Severe Weather on mobile